Flight Track Log - Related Links

Times and Time Zones

All times are in EDT time to prevent confusion due to time zone crossing. See the N72758 flight status page for this flight to view local times or setup timezone preferences in your user account.

Time Position Orientation Groundspeed Altitude Reporting Facility
EDT Latitude Longitude Course Direction KTS MPH feet Rate Location/Type
Fri 08:11:32 PM 47.1222 -122.2864 13° North 94 108 1,400  Level Seattle Center
Fri 08:12:14 PM 47.1386 -122.2808 13° North 87 100 2,000 757 Climbing Seattle Center
Fri 08:13:15 PM 47.1475 -122.3150 291° West 102 117 2,700 541 Climbing Seattle Center
Fri 08:14:16 PM 47.1556 -122.3561 286° West 107 123 3,100 246 Climbing Seattle Center
Fri 08:15:17 PM 47.1653 -122.4031 287° West 126 145 3,200  Climbing Seattle Center
Fri 08:16:14 PM 47.1750 -122.4508 287° West 123 142 3,100 -90 Descending Seattle Center
Fri 08:16:24 PM 47.1753 -122.4594 273° West 123 142 3,100  Level Seattle Center
Fri 08:17:19 PM 47.1861 -122.5025 290° West 119 137 3,100  Level Seattle Center
Fri 08:18:16 PM 47.1939 -122.5433 286° West 120 138 3,100  Level Seattle Center
Fri 08:18:19 PM 47.1958 -122.5492 296° West 118 136 3,100  Level Seattle Center
Fri 08:19:17 PM 47.2042 -122.5936 285° West 120 138 3,100  Level Seattle Center
Fri 08:19:20 PM 47.2053 -122.5961 303° West 120 138 3,100 197 Level Seattle Center
Fri 08:20:18 PM 47.2308 -122.6222 325° Northwest 121 139 3,300 179 Climbing Seattle Center
Fri 08:20:27 PM 47.2358 -122.6286 319° Northwest 120 138 3,300 492 Level Seattle Center
Fri 08:21:19 PM 47.2561 -122.6453 331° Northwest 107 123 3,800 545 Climbing Seattle Center
Fri 08:21:22 PM 47.2558 -122.6469 256° West 102 117 3,800 290 Level Seattle Center
Fri 08:22:21 PM 47.2856 -122.6553 349° North 114 131 4,100 295 Climbing Seattle Center
Fri 08:22:23 PM 47.2897 -122.6581 336° Northwest 123 142 4,100  Level Seattle Center
Fri 08:23:22 PM 47.3214 -122.6567 North 129 148 4,100  Level Seattle Center
Fri 08:23:30 PM 47.3272 -122.6572 356° North 133 153 4,100  Level Seattle Center
Fri 08:24:30 PM 47.3661 -122.6622 355° North 136 157 4,100  Level Seattle Center
Fri 08:25:24 PM 47.3986 -122.6639 358° North 134 154 4,100  Level Seattle Center
Fri 08:25:31 PM 47.4025 -122.6653 346° North 133 153 4,100  Level Seattle Center
Fri 08:26:25 PM 47.4353 -122.6678 357° North 132 152 4,100  Level Seattle Center
Fri 08:26:38 PM 47.4453 -122.6683 358° North 134 154 4,100  Level Seattle Center
Fri 08:27:26 PM 47.4733 -122.6661 North 136 157 4,100  Level Seattle Center
Fri 08:27:39 PM 47.4831 -122.6675 354° North 136 157 4,100 -97 Level Seattle Center
Fri 08:28:28 PM 47.5136 -122.6661 North 134 154 4,000  Descending Seattle Center
Fri 08:28:34 PM 47.5167 -122.6689 328° Northwest 133 153 4,100  Climbing Seattle Center
Fri 08:29:29 PM 47.5500 -122.6689 360° North 132 152 4,000  Descending Seattle Center
Fri 08:29:41 PM 47.5594 -122.6717 349° North 132 152 4,100  Climbing Seattle Center
Fri 08:30:30 PM 47.5858 -122.6733 358° North 130 150 4,000  Descending Seattle Center
Fri 08:30:36 PM 47.5892 -122.6750 341° North 129 148 4,100  Climbing Seattle Center
Fri 08:31:31 PM 47.6206 -122.6786 356° North 126 145 4,000  Descending Seattle Center
Fri 08:31:43 PM 47.6281 -122.6800 353° North 124 143 4,100  Climbing Seattle Center
Fri 08:32:32 PM 47.6567 -122.6722 10° North 125 144 4,000  Descending Seattle Center
Fri 08:32:44 PM 47.6636 -122.6706 North 128 147 4,100  Climbing Seattle Center
Fri 08:33:33 PM 47.6897 -122.6564 20° North 125 144 4,000  Descending Seattle Center
Fri 08:33:39 PM 47.6928 -122.6547 20° North 126 145 4,100  Climbing Seattle Center
Fri 08:34:34 PM 47.7225 -122.6419 16° North 123 142 4,000  Descending Seattle Center
Fri 08:34:46 PM 47.7286 -122.6383 22° Northeast 122 140 4,100  Climbing Seattle Center
Fri 08:35:35 PM 47.7544 -122.6264 17° North 122 140 4,000  Descending Seattle Center
Fri 08:35:46 PM 47.7625 -122.6231 16° North 121 139 4,100  Climbing Seattle Center
Fri 08:36:37 PM 47.7881 -122.6100 19° North 118 136 4,000  Descending Seattle Center
Fri 08:36:47 PM 47.7939 -122.6058 26° Northeast 116 133 4,100  Climbing Seattle Center
Fri 08:37:38 PM 47.8144 -122.5886 29° Northeast 118 136 4,000  Descending Seattle Center
Fri 08:37:48 PM 47.8211 -122.5811 37° Northeast 120 138 4,100  Climbing Seattle Center
Fri 08:38:39 PM 47.8428 -122.5650 27° Northeast 118 136 4,000  Descending Seattle Center
Fri 08:38:49 PM 47.8514 -122.5611 17° North 117 135 4,100  Climbing Seattle Center
Fri 08:39:40 PM 47.8728 -122.5450 27° Northeast 117 135 4,000  Descending Seattle Center
Fri 08:39:44 PM 47.8781 -122.5431 14° North 118 136 4,100  Climbing Seattle Center
Fri 08:40:41 PM 47.9022 -122.5225 30° Northeast 118 136 4,000  Descending Seattle Center
Fri 08:40:45 PM 47.9092 -122.5161 32° Northeast 117 135 4,100  Climbing Seattle Center
Fri 08:41:42 PM 47.9306 -122.4981 29° Northeast 118 136 4,000  Descending Seattle Center
Fri 08:41:46 PM 47.9369 -122.4942 22° Northeast 117 135 4,100 -277 Climbing Seattle Center
Fri 08:42:47 PM 47.9686 -122.4700 27° Northeast 123 142 3,700 -443 Descending Seattle Center
Fri 08:43:48 PM 47.9997 -122.4428 30° Northeast 126 145 3,200 -310 Descending Seattle Center
Fri 08:44:43 PM 48.0256 -122.4219 28° Northeast 123 142 3,100 -211 Descending Seattle Center
Fri 08:44:45 PM 48.0281 -122.4219 360° North 123 142 3,000  Descending Seattle Center
Fri 08:45:43 PM 48.0533 -122.4000 30° Northeast 113 130 3,100  Climbing Seattle Center
Fri 08:45:46 PM 48.0547 -122.3986 34° Northeast 114 131 3,000  Descending Seattle Center
Fri 08:46:44 PM 48.0797 -122.3719 35° Northeast 125 144 3,100  Climbing Seattle Center
Fri 08:46:47 PM 48.0792 -122.3703 117° Southeast 115 132 3,000  Descending Seattle Center
Fri 08:47:45 PM 48.0667 -122.3194 110° East 133 153 3,100  Climbing Seattle Center
Fri 08:47:49 PM 48.0669 -122.3200 307° West 134 154 3,000 -98 Descending Seattle Center
Fri 08:48:46 PM 48.0369 -122.2897 146° Southeast 131 151 3,000 -98 Level Seattle Center
Fri 08:48:50 PM 48.0356 -122.2906 202° Southwest 131 151 2,900 -554 Descending Seattle Center
Fri 08:49:51 PM 47.9997 -122.2864 176° South 130 150 2,400 -476 Descending Seattle Center
Fri 08:49:53 PM 47.9967 -122.2889 209° Southwest 131 151 2,400 -787 Level Seattle Center
Fri 08:50:52 PM 47.9678 -122.2867 177° South 116 133 1,600 -885 Descending Seattle Center
Fri 08:50:54 PM 47.9631 -122.2878 189° South 111 128 1,500 -590 Descending Seattle Center
Fri 08:51:53 PM 47.9400 -122.2861 177° South 106 122 1,000 -500 Descending Seattle Center
Fri 08:51:54 PM 47.9381 -122.2853 164° South 89 102 1,000 -98 Level Seattle Center
Fri 08:52:54 PM 47.9150 -122.2856 180° South 104 120 900 -100 Descending Seattle Center

Login

Don't have an account? Register now (free) for customized features, flight alerts, and more!